x

Grays Reef - 40 Nm Southeast Of Savannah, Ga (41008) Wave Buoy

10:50pm - Fri 26th Aug 2016 All times are EDT. -4 hours from GMT.

  • Sig Wave height 3.6ft
  • Swell Direction
  • Peak Period 7s
  • Average Period 5s
  • Wind
    11mph, 13mph gusts
  • Sea Temp 85°f
  • Air Temp 83°f
  • Sea Pressure 1018mb
  • Grays Reef - 40 Nm Southeast Of Savannah, Ga
  • Grays Reef - 40 Nm Southeast Of Savannah, Ga

More Historic Weather Station data

Upgrade to MSW Pro to gain access to the past 30 days of data for over 8000 Wavebouys and Weather Stations around the globe.

Join Pro

Comparision Forecast

View Surf forecast
   
Fri 08/26 10:50pm 3.5ft 7s 5s 11 13 mph 1018mb 85f 83f
9:50pm 3.5ft 6s 5s 11 13 mph 1017.5mb 85f 83f
8:50pm 3.5ft 8s 5s 11 13 mph 1016.9mb 85f 83f
7:50pm 3.5ft 8s 5s 13 16 mph 1016.3mb 85f 83f
6:50pm 3.5ft 5s 5s 16 18 mph 1016.3mb 85f 83f
5:50pm 4ft 8s 5s 16 20 mph 1016.3mb 85f 83f
4:50pm 4ft 8s 5s 16 20 mph 1016.6mb 85f 83f
3:50pm 4.5ft 8s 5s 18 20 mph 1016.8mb 85f 83f
2:50pm 4.5ft 8s 5s 18 22 mph 1017.1mb 85f 83f
1:50pm 4.5ft 7s 5s 16 22 mph 1018mb 85f 83f
12:50pm 4.5ft 8s 5s 18 20 mph 1018.3mb 85f 83f
11:50am 4.5ft 8s 5s 18 22 mph 1018.5mb 85f 83f
10:50am 4ft 8s 5s 18 22 mph 1018.6mb 85f 83f
9:50am 3.5ft 8s 5s 18 20 mph 1018.5mb 85f 83f
8:50am 3.5ft 9s 5s 16 18 mph 1018.4mb 85f 83f
7:50am 3ft 7s 5s 13 16 mph 1018.1mb 85f 82f
6:50am 3.5ft 9s 5s 11 13 mph 1017.7mb 85f 82f
5:50am 3.5ft 7s 5s 9 13 mph 1017.2mb 85f 82f
4:50am 3.5ft 8s 5s 11 13 mph 1017.3mb 85f 82f
3:50am 3.5ft 7s 5s 11 13 mph 1017.4mb 85f 82f
2:50am 4ft 7s 5s 11 13 mph 1017.6mb 85f 83f
1:50am 4ft 7s 5s 11
mph
1018.2mb 85f 83f
12:50am 4ft 6s 5s 11 13 mph 1018.2mb 85f 83f
Thu 08/25 11:50pm 4ft 6s 5s 13 18 mph 1018.1mb 85f 83f
10:50pm 3.5ft 7s 5s 13 16 mph 1018.3mb 85f 83f
9:50pm 3.5ft 5s 5s 13 16 mph 1018mb 85f 83f
8:50pm 3.5ft 4s 4s 16 20 mph 1017.7mb 85f 83f
7:50pm 3.5ft 5s 4s 18 20 mph 1017.6mb 85f 83f
6:50pm 3.5ft 5s 5s 16 20 mph 1017.6mb 85f 83f
5:50pm 3.5ft 5s 5s 18 22 mph 1017.8mb 85f 83f
4:50pm 4.5ft 5s 5s 16 20 mph 1017.9mb 85f 83f
3:50pm 4ft 5s 4s 20 22 mph 1017.9mb 85f 83f
2:50pm 4ft 5s 4s 20 25 mph 1018.7mb 85f 82f
1:50pm 4ft 5s 4s 20 22 mph 1019.6mb 85f 82f
12:50pm 3.5ft 11s 4s 20 25 mph 1020mb 85f 82f
11:50am 3.5ft 10s 4s 16 18 mph 1020.5mb 85f 82f
10:50am 3.5ft 11s 5s 13 16 mph 1020.5mb 85f 83f
9:50am 3.5ft 6s 5s 11 13 mph 1020.5mb 85f 83f
8:50am 3.5ft 6s 5s 13 16 mph 1020mb 85f 82f
7:50am 3.5ft 7s 5s 13 18 mph 1019.4mb 85f 82f
6:50am 3.5ft 6s 5s 18 22 mph 1018.7mb 85f 82f
5:50am 3.5ft 7s 5s 16 20 mph 1018.8mb 85f 82f
4:50am 3.5ft 7s 5s 16 20 mph 1018.7mb 84f 82f
3:50am 3.5ft 6s 5s 16 20 mph 1018.9mb 84f 82f
2:50am 3.5ft 8s 5s 16 18 mph 1019.3mb 85f 83f
1:50am 4ft 6s 5s 16 18 mph 1019.8mb 85f 83f
12:50am 4.5ft 6s 5s 16 18 mph 1020.2mb 85f 83f
Wed 08/24 10:50pm 4ft 5s 5s 18 20 mph 1021.1mb 85f 83f
9:50pm 4.5ft 6s 5s 16 20 mph 1021.3mb 85f 83f
8:50pm 4.5ft 5s 5s 18 22 mph 1021mb 85f 83f
7:50pm 4.5ft 6s 5s 18 22 mph 1020.9mb 85f 83f
6:50pm 4.5ft 6s 5s 20 25 mph 1020.7mb 85f 83f
5:50pm 4.5ft 6s 5s 18 22 mph 1020.7mb 85f 83f
4:50pm 4.5ft 5s 5s 20 22 mph 1020.8mb 85f 82f
3:50pm 4.5ft 5s 4s 22 27 mph 1021mb 85f 83f
2:50pm 3.5ft 5s 4s 20 25 mph 1021.7mb 85f 83f
1:50pm 3.5ft 5s 4s 20 25 mph 1022.1mb 85f 83f
12:50pm 3.5ft 5s  -  11 13 mph 1022.7mb 85f 83f
11:50am 3.5ft 5s 4s 13 18 mph 1023.1mb 85f 83f
10:50am 3.5ft 6s 4s 16 18 mph 1023.2mb 85f 83f
9:50am 3.5ft 7s 4s 13 16 mph 1023mb 85f 84f
8:50am 3.5ft 6s 5s 13 16 mph 1022.7mb 85f 83f
7:50am 3.5ft 5s 5s 13 16 mph 1022.4mb 85f 83f
5:50am 3.5ft 7s 5s 13 18 mph 1021.2mb 85f 83f
4:50am 3.5ft 5s 5s 16 18 mph 1020.8mb 85f 83f
3:50am 3.5ft 5s 5s 13 18 mph 1020.9mb 85f 84f
2:50am 3.5ft 6s 5s 13 16 mph 1021.3mb 85f 83f
1:50am 3.5ft 5s 4s 13 16 mph 1021.5mb 85f 84f
12:50am 3.5ft 6s 4s 13 16 mph 1022.1mb 85f 84f
Tue 08/23 11:50pm 3ft 5s 4s 13 16 mph 1022.1mb 85f 84f
10:50pm 2.5ft 5s 4s 13 16 mph 1022.1mb 85f 84f
9:50pm 3ft 5s 4s 13 16 mph 1022.1mb 85f 84f
8:50pm 3.5ft 5s 4s 16 18 mph 1021.8mb 85f 84f
7:50pm 3ft 5s 4s 20 22 mph 1020.4mb 85f 84f
6:50pm 3ft 5s 4s 18 20 mph 1020.8mb 85f 84f
5:50pm 2.5ft 4s 4s 18 20 mph 1021.3mb 85f 84f
4:50pm 2.5ft 4s 4s 16 18 mph 1021.3mb 85f 85f
3:50pm 2.5ft 4s 4s 16 18 mph 1021.5mb 85f 85f
2:50pm 1.6ft 3s 4s 16 18 mph 1021.6mb 85f 84f
1:50pm 1.3ft 3s 4s 13 16 mph 1022.4mb 85f 84f
12:50pm 1.3ft 8s 4s 11
mph
1023mb 85f 84f
11:50am 1.3ft 13s 4s 11
mph
1023mb 85f 84f
10:50am 1.3ft 5s 4s 11
mph
1022.8mb 85f 84f
9:50am 1.3ft 8s 4s 2 4 mph 1022.7mb 85f 84f
8:50am 1.3ft 12s 4s 4 7 mph 1022.2mb 85f 83f
7:50am 1.3ft 12s 4s 7 9 mph 1021.6mb 85f 83f
6:50am 1.3ft 8s 4s 11 13 mph 1021.1mb 85f 83f
4:50am 1.3ft 4s 4s 7 9 mph 1020.1mb 85f 84f
3:50am 1.3ft 5s 4s 7
mph
1020.1mb 85f 84f